Wroughton, United Kingdom
Current Conditions -  °F | °C
As of 12:58 AM on Monday 24 Nov 2014 (Local Time) from EGVA Reporting Station
Clear Clear  
Wind Chill: -2°   Ceiling: Unl
Heat Index:   Visibility: 6mi
Dew Point:   Wind: 7mph
Humidity: 99%   Direction: 270°W
Pressure: 30.21"   Gusts: NA
Location:  51.52°N, 1.8°W
Report Text: EGVA 240058Z AUTO 27006KT 9999 CLR 01/01 A3021 RMK AO2 SLP237 T00110009 $
Loading
Personal Weather Stations






























Interactive Weather Map New forecast layout! Learn more

10-Day Weather Forecast

Advertisements
Track Severe Weather on mobile